createdAt,value
2022-09-21T00:01:15.591Z,8.60
2022-09-21T00:03:45.116Z,8.60
2022-09-21T00:06:15.447Z,8.50
2022-09-21T00:08:44.050Z,8.50
2022-09-21T00:11:15.395Z,8.60
2022-09-21T00:13:46.997Z,8.50
2022-09-21T00:16:16.445Z,8.40
2022-09-21T00:18:44.980Z,8.40
2022-09-21T00:21:16.268Z,8.40
2022-09-21T00:23:45.050Z,8.50
2022-09-21T00:26:16.556Z,8.50
2022-09-21T00:28:45.565Z,8.50
2022-09-21T00:31:15.827Z,8.40
2022-09-21T00:33:44.646Z,8.30
2022-09-21T00:36:14.658Z,8.40
2022-09-21T00:38:42.721Z,8.40
2022-09-21T00:41:12.753Z,8.30
2022-09-21T00:43:51.318Z,8.30
2022-09-21T00:46:28.559Z,8.30
2022-09-21T00:48:56.915Z,8.30
2022-09-21T00:51:25.118Z,8.30
2022-09-21T00:53:57.200Z,8.30
2022-09-21T00:56:25.773Z,8.30
2022-09-21T00:58:56.709Z,8.30
2022-09-21T01:01:25.099Z,8.30
2022-09-21T01:03:57.590Z,8.10
2022-09-21T01:06:27.387Z,8.00
2022-09-21T01:08:59.092Z,8.00
2022-09-21T01:11:35.602Z,8.00
2022-09-21T01:14:27.572Z,8.10
2022-09-21T01:17:03.610Z,8.10
2022-09-21T01:19:53.597Z,8.10
2022-09-21T01:22:33.159Z,8.10
2022-09-21T01:25:11.004Z,8.10
2022-09-21T01:28:02.375Z,8.10
2022-09-21T01:30:35.791Z,7.90
2022-09-21T01:33:10.046Z,8.00
2022-09-21T01:35:44.134Z,8.10
2022-09-21T01:38:15.531Z,8.00
2022-09-21T01:40:46.887Z,7.90
2022-09-21T01:43:20.185Z,7.90
2022-09-21T01:45:54.921Z,8.00
2022-09-21T01:48:26.208Z,7.90
2022-09-21T01:50:57.709Z,7.80
2022-09-21T01:53:32.433Z,7.90
2022-09-21T01:56:06.233Z,7.90
2022-09-21T01:58:40.277Z,7.90
2022-09-21T02:01:16.004Z,7.90
2022-09-21T02:03:46.541Z,7.90
2022-09-21T02:06:15.958Z,7.80
2022-09-21T02:08:45.138Z,7.90
2022-09-21T02:11:13.441Z,7.90
2022-09-21T02:13:44.284Z,7.90
2022-09-21T02:16:27.640Z,7.80
2022-09-21T02:19:09.322Z,7.90
2022-09-21T02:21:46.320Z,7.80
2022-09-21T02:24:22.928Z,7.90
2022-09-21T02:26:59.225Z,7.80
2022-09-21T02:29:33.520Z,7.80
2022-09-21T02:32:08.076Z,7.80
2022-09-21T02:34:45.778Z,7.70
2022-09-21T02:37:22.678Z,7.70
2022-09-21T02:39:59.231Z,7.70
2022-09-21T02:42:31.902Z,7.70
2022-09-21T02:45:06.398Z,7.70
2022-09-21T02:47:40.677Z,7.60
2022-09-21T02:50:14.049Z,7.60
2022-09-21T02:52:45.392Z,7.60
2022-09-21T02:55:16.292Z,7.60
2022-09-21T02:57:45.628Z,7.40
2022-09-21T03:00:15.490Z,7.40
2022-09-21T03:02:46.624Z,7.40
2022-09-21T03:05:15.964Z,7.40
2022-09-21T03:07:44.333Z,7.40
2022-09-21T03:10:12.437Z,7.50
2022-09-21T03:12:40.447Z,7.50
2022-09-21T03:15:08.866Z,7.50
2022-09-21T03:17:36.857Z,7.50
2022-09-21T03:20:08.060Z,7.50
2022-09-21T03:22:36.052Z,7.50
2022-09-21T03:25:04.113Z,7.50
2022-09-21T03:27:32.152Z,7.50
2022-09-21T03:30:02.476Z,7.60
2022-09-21T03:32:30.872Z,7.50
2022-09-21T03:34:59.380Z,7.50
2022-09-21T03:37:29.778Z,7.40
2022-09-21T03:39:57.799Z,7.40
2022-09-21T03:42:26.181Z,7.30
2022-09-21T03:44:54.321Z,7.40
2022-09-21T03:47:22.354Z,7.40
2022-09-21T03:49:50.623Z,7.30
2022-09-21T03:52:18.636Z,7.20
2022-09-21T03:54:47.987Z,7.30
2022-09-21T03:57:16.005Z,7.40
2022-09-21T03:59:44.021Z,7.40
2022-09-21T04:02:12.086Z,7.50
2022-09-21T04:04:40.146Z,7.40
2022-09-21T04:07:08.178Z,7.40
2022-09-21T04:09:36.218Z,7.30
2022-09-21T04:12:06.146Z,7.30
2022-09-21T04:14:34.222Z,7.30
2022-09-21T04:17:02.266Z,7.40
2022-09-21T04:19:30.469Z,7.30
2022-09-21T04:21:58.635Z,7.30
2022-09-21T04:24:27.270Z,7.30
2022-09-21T04:26:55.258Z,7.40
2022-09-21T04:29:24.665Z,7.40
2022-09-21T04:31:52.706Z,7.40
2022-09-21T04:34:21.251Z,7.40
2022-09-21T04:36:49.234Z,7.30
2022-09-21T04:39:17.208Z,7.20
2022-09-21T04:41:45.562Z,7.20
2022-09-21T04:44:13.582Z,7.40
2022-09-21T04:46:43.425Z,7.40
2022-09-21T04:49:12.092Z,7.30
2022-09-21T04:51:40.130Z,7.20
2022-09-21T04:54:08.158Z,7.40
2022-09-21T04:56:36.312Z,7.40
2022-09-21T04:59:04.971Z,7.30
2022-09-21T05:01:33.231Z,7.50
2022-09-21T05:04:03.097Z,7.30
2022-09-21T05:06:31.593Z,7.30
2022-09-21T05:09:17.930Z,7.30
2022-09-21T05:11:46.537Z,7.30
2022-09-21T05:14:14.588Z,7.30
2022-09-21T05:16:42.638Z,7.20
2022-09-21T05:19:12.055Z,7.30
2022-09-21T05:21:40.398Z,7.20
2022-09-21T05:24:09.027Z,7.20
2022-09-21T05:26:37.109Z,7.20
2022-09-21T05:29:06.340Z,7.30
2022-09-21T05:31:42.909Z,7.40
2022-09-21T05:34:25.933Z,7.40
2022-09-21T05:37:00.102Z,7.40
2022-09-21T05:39:28.562Z,7.30
2022-09-21T05:41:57.162Z,7.40
2022-09-21T05:44:25.982Z,7.50
2022-09-21T05:47:00.759Z,7.50
2022-09-21T05:49:39.398Z,7.60
2022-09-21T05:52:17.840Z,7.50
2022-09-21T05:54:57.689Z,7.70
2022-09-21T05:57:36.958Z,7.60
2022-09-21T06:00:15.784Z,7.70
2022-09-21T06:03:06.208Z,7.80
2022-09-21T06:05:36.062Z,7.90
2022-09-21T06:08:07.115Z,7.90
2022-09-21T06:10:37.192Z,8.00
2022-09-21T06:13:05.194Z,7.90
2022-09-21T06:15:38.446Z,8.10
2022-09-21T06:18:07.308Z,8.20
2022-09-21T06:20:36.942Z,8.10
2022-09-21T06:23:05.664Z,8.20
2022-09-21T06:25:34.048Z,8.30
2022-09-21T06:28:04.537Z,8.30
2022-09-21T06:30:34.606Z,8.40
2022-09-21T06:33:03.879Z,8.50
2022-09-21T06:35:33.313Z,8.60
2022-09-21T06:38:05.093Z,8.50
2022-09-21T06:40:34.318Z,8.60
2022-09-21T06:43:03.680Z,8.60
2022-09-21T06:45:32.349Z,8.70
2022-09-21T06:48:00.957Z,8.80
2022-09-21T06:50:29.013Z,8.80
2022-09-21T06:52:57.106Z,8.80
2022-09-21T06:55:26.549Z,9.10
2022-09-21T06:57:57.070Z,9.10
2022-09-21T07:00:25.057Z,9.30
2022-09-21T07:02:53.149Z,9.20
2022-09-21T07:05:21.336Z,9.10
2022-09-21T07:07:53.808Z,9.00
2022-09-21T07:10:22.077Z,9.20
2022-09-21T07:12:52.561Z,9.40
2022-09-21T07:15:22.433Z,9.60
2022-09-21T07:17:52.401Z,9.60
2022-09-21T07:20:21.766Z,9.70
2022-09-21T07:22:49.814Z,9.70
2022-09-21T07:25:18.142Z,9.70
2022-09-21T07:27:48.152Z,9.80
2022-09-21T07:30:18.133Z,9.90
2022-09-21T07:32:46.108Z,10.10
2022-09-21T07:35:14.356Z,10.20
2022-09-21T07:37:42.332Z,10.10
2022-09-21T07:40:11.577Z,10.30
2022-09-21T07:42:39.692Z,10.60
2022-09-21T07:45:09.182Z,10.90
2022-09-21T07:47:39.053Z,11.00
2022-09-21T07:50:07.859Z,11.00
2022-09-21T07:52:36.348Z,11.20
2022-09-21T07:55:04.591Z,11.20
2022-09-21T07:57:49.978Z,11.70
2022-09-21T08:00:18.280Z,12.30
2022-09-21T08:02:49.264Z,13.20
2022-09-21T08:05:17.530Z,13.40
2022-09-21T08:07:45.558Z,14.30
2022-09-21T08:10:13.539Z,14.80
2022-09-21T08:12:41.591Z,15.20
2022-09-21T08:15:30.899Z,15.70
2022-09-21T08:18:07.208Z,15.80
2022-09-21T08:20:35.955Z,15.90
2022-09-21T08:23:04.827Z,15.90
2022-09-21T08:25:34.355Z,16.20
2022-09-21T08:28:07.422Z,16.20
2022-09-21T08:30:37.770Z,16.80
2022-09-21T08:33:08.282Z,17.30
2022-09-21T08:35:37.361Z,17.60
2022-09-21T08:38:05.421Z,17.60
2022-09-21T08:40:34.593Z,17.70
2022-09-21T08:43:06.041Z,18.00
2022-09-21T08:45:38.783Z,18.70
2022-09-21T08:48:16.367Z,18.60
2022-09-21T08:50:50.129Z,18.90
2022-09-21T08:53:24.220Z,19.20
2022-09-21T08:55:52.350Z,19.30
2022-09-21T08:58:24.371Z,19.30
2022-09-21T09:01:07.415Z,19.10
2022-09-21T09:04:01.790Z,19.50
2022-09-21T09:06:40.415Z,19.90
2022-09-21T09:09:23.375Z,20.00
2022-09-21T09:12:06.255Z,20.00
2022-09-21T09:14:57.970Z,20.00
2022-09-21T09:17:39.190Z,19.90
2022-09-21T09:20:14.216Z,19.70
2022-09-21T09:22:47.471Z,20.00
2022-09-21T09:25:21.445Z,20.40
2022-09-21T09:27:54.372Z,20.00
2022-09-21T09:30:27.332Z,20.10
2022-09-21T09:33:03.024Z,20.60
2022-09-21T09:35:38.016Z,21.10
2022-09-21T09:38:12.715Z,21.30
2022-09-21T09:41:02.320Z,21.20
2022-09-21T09:43:43.945Z,21.10
2022-09-21T09:46:21.075Z,21.20
2022-09-21T09:49:13.546Z,21.40
2022-09-21T09:51:43.520Z,21.60
2022-09-21T09:54:16.139Z,20.90
2022-09-21T09:56:44.780Z,21.30
2022-09-21T09:59:21.158Z,22.00
2022-09-21T10:02:01.740Z,21.70
2022-09-21T10:04:30.022Z,22.10
2022-09-21T10:06:59.510Z,21.80
2022-09-21T10:09:29.888Z,22.30
2022-09-21T10:12:01.089Z,21.60
2022-09-21T10:14:34.384Z,21.90
2022-09-21T10:17:07.351Z,22.20
2022-09-21T10:19:36.212Z,22.50
2022-09-21T10:22:07.137Z,23.10
2022-09-21T10:24:38.979Z,21.80
2022-09-21T10:27:13.857Z,20.60
2022-09-21T10:29:44.206Z,20.60
2022-09-21T10:32:24.497Z,21.60
2022-09-21T10:35:19.198Z,22.30
2022-09-21T10:37:53.822Z,22.20
2022-09-21T10:40:27.735Z,22.80
2022-09-21T10:42:58.734Z,22.20
2022-09-21T10:45:28.436Z,21.50
2022-09-21T10:48:00.097Z,21.90
2022-09-21T10:50:31.044Z,22.30
2022-09-21T10:53:20.616Z,22.50
2022-09-21T10:56:11.795Z,22.60
2022-09-21T10:59:12.854Z,22.20
2022-09-21T11:01:45.949Z,21.70
2022-09-21T11:04:19.461Z,22.20
2022-09-21T11:06:51.730Z,22.30
2022-09-21T11:09:27.291Z,22.40
2022-09-21T11:12:00.537Z,22.00
2022-09-21T11:14:44.724Z,21.70
2022-09-21T11:17:19.300Z,20.70
2022-09-21T11:19:53.986Z,20.70
2022-09-21T11:22:32.012Z,21.00
2022-09-21T11:25:07.962Z,21.70
2022-09-21T11:27:40.218Z,21.60
2022-09-21T11:30:14.110Z,21.60
2022-09-21T11:33:06.121Z,21.90
2022-09-21T11:35:49.785Z,21.30
2022-09-21T11:38:29.915Z,21.50
2022-09-21T11:41:18.244Z,21.40
2022-09-21T11:44:13.065Z,21.30
2022-09-21T11:46:50.177Z,21.20
2022-09-21T11:49:37.726Z,21.40
2022-09-21T11:52:26.192Z,21.60
2022-09-21T11:55:28.490Z,21.20
2022-09-21T11:58:05.399Z,21.50
2022-09-21T12:00:44.416Z,21.80
2022-09-21T12:03:45.312Z,21.70
2022-09-21T12:06:24.486Z,21.40
2022-09-21T12:09:11.871Z,21.10
2022-09-21T12:11:44.463Z,21.20
2022-09-21T12:14:24.973Z,21.20
2022-09-21T12:17:00.695Z,20.00
2022-09-21T12:19:37.796Z,20.10
2022-09-21T12:22:14.408Z,20.70
2022-09-21T12:24:46.760Z,21.00
2022-09-21T12:27:26.462Z,20.40
2022-09-21T12:30:00.676Z,20.40
2022-09-21T12:32:47.369Z,21.10
2022-09-21T12:35:19.214Z,21.20
2022-09-21T12:37:52.810Z,20.60
2022-09-21T12:40:28.003Z,20.60
2022-09-21T12:43:02.810Z,20.90
2022-09-21T12:45:36.914Z,20.90
2022-09-21T12:48:12.481Z,20.50
2022-09-21T12:50:45.197Z,20.20
2022-09-21T12:53:19.085Z,20.50
2022-09-21T12:55:56.180Z,20.70
2022-09-21T12:58:39.592Z,20.50
2022-09-21T13:01:21.452Z,20.60
2022-09-21T13:04:02.092Z,20.90
2022-09-21T13:06:56.601Z,21.10
2022-09-21T13:09:25.396Z,21.20
2022-09-21T13:11:57.017Z,21.10
2022-09-21T13:14:26.911Z,21.70
2022-09-21T13:17:00.433Z,21.60
2022-09-21T13:19:31.221Z,21.40
2022-09-21T13:22:20.271Z,21.30
2022-09-21T13:25:01.376Z,20.60
2022-09-21T13:28:01.654Z,21.10
2022-09-21T13:30:39.530Z,21.40
2022-09-21T13:33:40.297Z,21.50
2022-09-21T13:36:31.843Z,21.50
2022-09-21T13:39:17.442Z,21.50
2022-09-21T13:44:46.472Z,21.30
2022-09-21T13:47:15.331Z,20.80
2022-09-21T13:50:00.330Z,20.50
2022-09-21T13:52:45.103Z,20.30
2022-09-21T13:55:26.081Z,20.50
2022-09-21T13:57:56.968Z,20.10
2022-09-21T14:00:38.984Z,20.00
2022-09-21T14:03:22.038Z,20.00
2022-09-21T14:05:56.572Z,20.30
2022-09-21T14:08:31.408Z,20.10
2022-09-21T14:11:02.978Z,19.70
2022-09-21T14:13:35.058Z,19.90
2022-09-21T14:16:51.561Z,19.80
2022-09-21T14:19:57.095Z,19.50
2022-09-21T14:22:38.862Z,19.40
2022-09-21T14:25:30.569Z,19.50
2022-09-21T14:28:10.239Z,19.50
2022-09-21T14:30:39.382Z,19.20
2022-09-21T14:33:25.750Z,19.10
2022-09-21T14:35:55.965Z,19.00
2022-09-21T14:38:29.283Z,18.80
2022-09-21T14:41:01.690Z,18.80
2022-09-21T14:43:35.337Z,18.80
2022-09-21T14:46:24.526Z,18.70
2022-09-21T14:49:07.481Z,19.00
2022-09-21T14:51:45.969Z,19.20
2022-09-21T14:54:38.675Z,19.20
2022-09-21T14:57:24.319Z,19.10
2022-09-21T15:00:08.133Z,18.90
2022-09-21T15:02:37.492Z,18.90
2022-09-21T15:05:20.429Z,18.80
2022-09-21T15:08:11.072Z,18.80
2022-09-21T15:10:57.098Z,18.70
2022-09-21T15:13:48.786Z,18.60
2022-09-21T15:16:38.475Z,18.50
2022-09-21T15:19:22.946Z,18.50
2022-09-21T15:21:52.795Z,18.40
2022-09-21T15:24:25.420Z,18.40
2022-09-21T15:27:02.181Z,18.40
2022-09-21T15:29:32.505Z,18.40
2022-09-21T15:32:01.501Z,18.30
2022-09-21T15:34:29.827Z,18.20
2022-09-21T15:37:08.819Z,18.20
2022-09-21T15:39:37.151Z,18.10
2022-09-21T15:42:31.155Z,18.10
2022-09-21T15:45:15.005Z,18.00
2022-09-21T15:47:45.074Z,18.00
2022-09-21T15:50:15.272Z,17.90
2022-09-21T15:52:47.466Z,17.70
2022-09-21T15:55:21.578Z,17.60
2022-09-21T15:57:56.443Z,17.50
2022-09-21T16:00:27.452Z,17.40
2022-09-21T16:03:05.389Z,17.30
2022-09-21T16:05:48.682Z,17.20
2022-09-21T16:08:27.450Z,17.20
2022-09-21T16:11:13.199Z,17.10
2022-09-21T16:14:00.482Z,17.00
2022-09-21T16:16:29.037Z,17.00
2022-09-21T16:19:00.140Z,16.90
2022-09-21T16:21:32.381Z,16.90
2022-09-21T16:24:12.792Z,16.80
2022-09-21T16:26:43.104Z,16.70
2022-09-21T16:29:25.933Z,16.60
2022-09-21T16:32:22.382Z,16.50
2022-09-21T16:34:52.020Z,16.50
2022-09-21T16:37:26.248Z,16.40
2022-09-21T16:39:54.669Z,16.30
2022-09-21T16:42:23.680Z,16.30
2022-09-21T16:44:53.297Z,16.20
2022-09-21T16:47:25.363Z,16.20
2022-09-21T16:49:55.445Z,16.10
2022-09-21T16:52:24.304Z,16.00
2022-09-21T16:54:52.405Z,15.90
2022-09-21T16:57:20.396Z,15.90
2022-09-21T16:59:50.089Z,15.80
2022-09-21T17:02:19.768Z,15.70
2022-09-21T17:04:48.278Z,15.60
2022-09-21T17:07:17.689Z,15.60
2022-09-21T17:09:47.931Z,15.50
2022-09-21T17:12:18.689Z,15.40
2022-09-21T17:14:47.676Z,15.40
2022-09-21T17:17:21.290Z,15.40
2022-09-21T17:19:50.958Z,15.20
2022-09-21T17:22:19.303Z,15.20
2022-09-21T17:24:51.282Z,15.10
2022-09-21T17:27:21.686Z,15.00
2022-09-21T17:29:50.848Z,14.90
2022-09-21T17:32:21.758Z,14.80
2022-09-21T17:34:56.534Z,14.70
2022-09-21T17:37:25.351Z,14.60
2022-09-21T17:39:53.720Z,14.60
2022-09-21T17:42:26.216Z,14.50
2022-09-21T17:45:12.856Z,14.40
2022-09-21T17:47:43.231Z,14.30
2022-09-21T17:50:23.192Z,14.30
2022-09-21T17:53:09.395Z,14.20
2022-09-21T17:55:38.742Z,14.10
2022-09-21T17:58:25.065Z,14.00
2022-09-21T18:01:02.324Z,13.90
2022-09-21T18:03:36.226Z,13.90
2022-09-21T18:06:05.061Z,13.80
2022-09-21T18:08:36.278Z,13.70
2022-09-21T18:11:31.037Z,13.60
2022-09-21T18:14:07.617Z,13.60
2022-09-21T18:16:41.937Z,13.60
2022-09-21T18:19:32.536Z,13.50
2022-09-21T18:22:10.952Z,12.80
2022-09-21T18:24:39.985Z,12.50
2022-09-21T18:27:10.962Z,12.70
2022-09-21T18:29:41.442Z,12.60
2022-09-21T18:32:28.592Z,12.70
2022-09-21T18:35:19.501Z,12.80
2022-09-21T18:38:02.953Z,12.80
2022-09-21T18:40:38.217Z,12.90
2022-09-21T18:43:20.121Z,12.90
2022-09-21T18:45:54.516Z,12.90
2022-09-21T18:48:35.042Z,13.00
2022-09-21T18:51:16.743Z,13.00
2022-09-21T18:53:48.072Z,12.90
2022-09-21T18:56:16.660Z,12.90
2022-09-21T18:58:45.448Z,12.90
2022-09-21T19:01:14.730Z,12.90
2022-09-21T19:03:46.362Z,12.90
2022-09-21T19:06:34.764Z,12.80
2022-09-21T19:09:11.799Z,12.60
2022-09-21T19:11:45.446Z,12.50
2022-09-21T19:14:23.680Z,12.50
2022-09-21T19:17:06.156Z,12.50
2022-09-21T19:19:41.349Z,12.50
2022-09-21T19:22:16.573Z,12.50
2022-09-21T19:24:58.407Z,12.50
2022-09-21T19:27:34.460Z,12.30
2022-09-21T19:30:07.310Z,11.90
2022-09-21T19:32:43.804Z,11.80
2022-09-21T19:35:22.364Z,11.80
2022-09-21T19:37:54.093Z,11.90
2022-09-21T19:40:25.497Z,11.90
2022-09-21T19:43:10.818Z,11.90
2022-09-21T19:45:48.203Z,11.90
2022-09-21T19:48:18.230Z,11.90
2022-09-21T19:50:53.888Z,11.80
2022-09-21T19:53:41.799Z,11.80
2022-09-21T19:56:30.466Z,11.70
2022-09-21T19:59:16.981Z,11.70
2022-09-21T20:01:52.598Z,11.60
2022-09-21T20:04:28.310Z,11.50
2022-09-21T20:07:03.205Z,11.50
2022-09-21T20:09:40.268Z,11.50
2022-09-21T20:12:20.533Z,11.60
2022-09-21T20:14:52.470Z,11.50
2022-09-21T20:17:36.189Z,11.40
2022-09-21T20:20:10.325Z,11.30
2022-09-21T20:22:40.558Z,11.30
2022-09-21T20:25:17.552Z,11.20
2022-09-21T20:27:48.508Z,11.10
2022-09-21T20:30:18.658Z,11.10
2022-09-21T20:32:50.974Z,11.00
2022-09-21T20:35:20.848Z,11.00
2022-09-21T20:37:49.088Z,11.10
2022-09-21T20:40:20.450Z,11.10
2022-09-21T20:42:48.791Z,10.80
2022-09-21T20:45:17.105Z,10.80
2022-09-21T20:47:45.191Z,10.80
2022-09-21T20:50:13.668Z,10.70
2022-09-21T20:52:42.585Z,10.80
2022-09-21T20:55:14.018Z,10.70
2022-09-21T20:57:43.394Z,10.80
2022-09-21T21:00:13.862Z,10.80
2022-09-21T21:02:42.213Z,10.80
2022-09-21T21:05:11.471Z,10.70
2022-09-21T21:07:42.764Z,10.70
2022-09-21T21:10:14.216Z,10.70
2022-09-21T21:12:44.319Z,10.70
2022-09-21T21:15:12.983Z,10.70
2022-09-21T21:17:42.420Z,10.60
2022-09-21T21:20:11.406Z,10.60
2022-09-21T21:22:39.389Z,10.50
2022-09-21T21:25:07.952Z,10.50
2022-09-21T21:27:36.373Z,10.50
2022-09-21T21:30:07.614Z,10.40
2022-09-21T21:32:36.223Z,10.30
2022-09-21T21:35:05.002Z,10.20
2022-09-21T21:37:33.139Z,10.20
2022-09-21T21:40:01.667Z,10.20
2022-09-21T21:42:29.747Z,10.10
2022-09-21T21:44:57.798Z,10.10
2022-09-21T21:47:39.308Z,10.00
2022-09-21T21:50:08.618Z,10.00
2022-09-21T21:52:37.021Z,10.00
2022-09-21T21:55:05.633Z,10.00
2022-09-21T21:57:33.827Z,9.80
2022-09-21T22:00:02.057Z,9.80
2022-09-21T22:02:32.380Z,9.90
2022-09-21T22:05:00.762Z,9.90
2022-09-21T22:07:29.154Z,9.80
2022-09-21T22:09:57.191Z,9.70
2022-09-21T22:12:26.190Z,9.70
2022-09-21T22:14:54.647Z,9.70
2022-09-21T22:17:23.226Z,9.50
2022-09-21T22:19:54.492Z,9.50
2022-09-21T22:22:22.525Z,9.60
2022-09-21T22:24:50.491Z,9.60
2022-09-21T22:27:18.519Z,9.50
2022-09-21T22:29:46.496Z,9.40
2022-09-21T22:32:14.489Z,9.30
2022-09-21T22:34:42.575Z,9.20
2022-09-21T22:37:11.973Z,9.20
2022-09-21T22:39:40.111Z,9.10
2022-09-21T22:42:08.200Z,9.00
2022-09-21T22:44:36.226Z,9.00
2022-09-21T22:47:04.312Z,9.00
2022-09-21T22:49:32.307Z,9.00
2022-09-21T22:52:00.756Z,9.00
2022-09-21T22:54:30.093Z,9.00
2022-09-21T22:56:58.068Z,9.00
2022-09-21T22:59:26.351Z,9.10
2022-09-21T23:01:54.362Z,9.00
2022-09-21T23:04:22.928Z,8.90
2022-09-21T23:06:51.288Z,9.00
2022-09-21T23:09:21.069Z,9.00
2022-09-21T23:11:53.674Z,8.90
2022-09-21T23:14:23.437Z,8.90
2022-09-21T23:16:53.163Z,8.80
2022-09-21T23:19:21.558Z,8.70
2022-09-21T23:21:51.148Z,8.70
2022-09-21T23:24:19.586Z,8.70
2022-09-21T23:26:50.462Z,8.60
2022-09-21T23:29:20.307Z,8.50
2022-09-21T23:31:48.454Z,8.50
2022-09-21T23:34:17.224Z,8.30
2022-09-21T23:36:46.220Z,8.40
2022-09-21T23:39:15.898Z,8.50
2022-09-21T23:41:44.475Z,8.50
2022-09-21T23:44:12.461Z,8.40
2022-09-21T23:46:42.745Z,8.40
2022-09-21T23:49:11.148Z,8.50
2022-09-21T23:51:39.875Z,8.50
2022-09-21T23:54:08.313Z,8.60
2022-09-21T23:56:36.417Z,8.60
2022-09-21T23:59:05.542Z,8.60
